Time;durP1;ratioP1;P1;durP2;ratioP2;P2;SDS_P1;SDS_P2;PMS_P1;PMS_P2;Temp;Humidity;BMP_temperature;BMP_pressure;BME280_temperature;BME280_humidity;BME280_pressure;Samples;Min_cycle;Max_cycle;Signal;HPM_P1;HPM_P2
2023/06/16 00:01:38;;;;;;;29.63;17.00;;;;;;;15.14;100.00;92516.66;4762206;30;20067;-81
2023/06/16 00:04:05;;;;;;;30.90;18.20;;;;;;;15.12;100.00;92516.19;4778219;30;20058;-81
2023/06/16 00:06:31;;;;;;;34.60;17.85;;;;;;;15.13;100.00;92517.75;4739331;30;20043;-80
2023/06/16 00:08:58;;;;;;;33.08;19.08;;;;;;;15.10;100.00;92515.72;4781626;30;20035;-80
2023/06/16 00:11:27;;;;;;;35.08;20.33;;;;;;;15.11;100.00;92527.06;4759330;30;20351;-80
2023/06/16 00:13:54;;;;;;;33.53;20.25;;;;;;;15.09;100.00;92522.09;4773729;30;20122;-81
2023/06/16 00:16:20;;;;;;;31.67;18.42;;;;;;;15.09;100.00;92516.81;4775187;30;20043;-81
2023/06/16 00:18:54;;;;;;;35.65;19.00;;;;;;;15.09;100.00;92521.31;4786486;30;20071;-81
2023/06/16 00:21:29;;;;;;;29.30;18.02;;;;;;;15.07;100.00;92513.72;4763953;30;20055;-80
2023/06/16 00:23:56;;;;;;;28.75;16.50;;;;;;;15.05;100.00;92515.13;4774312;30;20035;-80
2023/06/16 00:26:26;;;;;;;23.85;15.00;;;;;;;15.02;100.00;92513.91;4763438;30;20042;-81
2023/06/16 00:28:52;;;;;;;23.83;14.20;;;;;;;15.00;100.00;92513.44;4786967;30;20047;-80
2023/06/16 00:31:17;;;;;;;22.20;12.50;;;;;;;14.99;100.00;92517.13;4770955;30;20482;-81
2023/06/16 00:33:43;;;;;;;19.67;12.10;;;;;;;14.96;100.00;92515.13;4757777;30;20482;-80
2023/06/16 00:36:08;;;;;;;19.23;10.73;;;;;;;14.94;100.00;92519.94;4759587;30;20039;-80
2023/06/16 00:38:34;;;;;;;17.90;10.35;;;;;;;14.92;100.00;92516.84;4783780;30;20096;-80
2023/06/16 00:41:01;;;;;;;18.50;9.88;;;;;;;14.88;100.00;92515.91;4775388;30;20469;-81
2023/06/16 00:43:26;;;;;;;20.00;9.52;;;;;;;14.87;100.00;92519.63;4742855;30;20043;-81
2023/06/16 00:45:52;;;;;;;18.02;9.43;;;;;;;14.86;100.00;92518.06;4766743;30;20297;-80
2023/06/16 00:48:18;;;;;;;19.23;9.77;;;;;;;14.83;100.00;92508.94;4760892;30;20054;-80
2023/06/16 00:50:46;;;;;;;23.85;9.10;;;;;;;14.81;100.00;92513.72;4782394;30;20062;-80
2023/06/16 00:53:12;;;;;;;20.52;9.23;;;;;;;14.80;100.00;92514.84;4763197;30;20464;-80
2023/06/16 00:55:40;;;;;;;20.45;8.68;;;;;;;14.77;100.00;92508.31;4758918;30;20455;-81
2023/06/16 00:58:07;;;;;;;14.60;8.80;;;;;;;14.72;100.00;92513.72;4776267;30;20118;-80
2023/06/16 01:00:35;;;;;;;14.23;8.52;;;;;;;14.67;100.00;92516.53;4775470;30;20043;-80
2023/06/16 01:03:05;;;;;;;13.88;8.73;;;;;;;14.65;100.00;92515.31;4783030;30;20043;-80
2023/06/16 01:05:32;;;;;;;17.30;8.65;;;;;;;14.61;100.00;92512.50;4767877;30;20069;-80
2023/06/16 01:07:59;;;;;;;15.77;8.63;;;;;;;14.61;100.00;92512.50;4750802;30;20036;-80
2023/06/16 01:10:37;;;;;;;13.98;8.70;;;;;;;14.57;100.00;92512.34;4762939;30;20050;-80
2023/06/16 01:13:12;;;;;;;17.90;8.77;;;;;;;14.54;100.00;92518.22;4781541;30;20059;-80
2023/06/16 01:15:42;;;;;;;20.10;9.23;;;;;;;14.50;100.00;92519.91;4767633;30;20401;-80
2023/06/16 01:18:08;;;;;;;18.48;10.68;;;;;;;14.49;100.00;92514.94;4777901;30;20059;-80
2023/06/16 01:20:49;;;;;;;19.50;9.43;;;;;;;14.48;100.00;92516.81;4770744;30;20043;-81
2023/06/16 01:23:40;;;;;;;16.40;9.18;;;;;;;14.43;100.00;92508.28;4770236;30;20042;-81
2023/06/16 01:26:09;;;;;;;14.88;9.18;;;;;;;14.40;100.00;92516.81;4765220;30;20036;-80
2023/06/16 01:28:40;;;;;;;16.45;9.45;;;;;;;14.34;100.00;92513.53;4759013;30;20066;-79
2023/06/16 01:31:08;;;;;;;15.93;9.25;;;;;;;14.29;100.00;92506.56;4774232;30;20039;-80
2023/06/16 01:33:37;;;;;;;16.98;9.60;;;;;;;14.28;100.00;92507.66;4760903;30;20055;-80
2023/06/16 01:36:04;;;;;;;22.52;10.63;;;;;;;14.26;100.00;92501.91;4776979;30;20115;-80
2023/06/16 01:38:30;;;;;;;20.00;9.93;;;;;;;14.25;100.00;92505.66;4758825;30;20486;-81
2023/06/16 01:40:58;;;;;;;16.75;10.00;;;;;;;14.23;100.00;92502.53;4758542;30;20050;-79
2023/06/16 01:43:24;;;;;;;18.75;9.95;;;;;;;14.22;100.00;92498.34;4772220;30;20509;-80
2023/06/16 01:45:51;;;;;;;16.00;8.90;;;;;;;14.21;100.00;92491.53;4775186;30;20149;-80
2023/06/16 01:48:20;;;;;;;18.80;9.23;;;;;;;14.18;100.00;92489.50;4781426;30;20069;-80
2023/06/16 01:50:47;;;;;;;18.05;9.15;;;;;;;14.13;100.00;92490.44;4770767;30;20132;-81
2023/06/16 01:53:12;;;;;;;16.63;8.70;;;;;;;14.10;100.00;92493.69;4756827;30;20043;-80
2023/06/16 01:55:38;;;;;;;16.30;9.07;;;;;;;14.07;100.00;92490.88;4758601;30;20050;-81
2023/06/16 01:58:06;;;;;;;14.10;7.78;;;;;;;14.02;100.00;92489.19;4762766;30;20071;-81
2023/06/16 02:00:40;;;;;;;12.48;7.63;;;;;;;14.00;100.00;92498.47;4761534;30;20825;-80
2023/06/16 02:03:07;;;;;;;11.93;7.60;;;;;;;13.95;100.00;92494.13;4786175;30;20493;-81
2023/06/16 02:05:36;;;;;;;11.35;7.40;;;;;;;13.92;100.00;92500.78;4761024;30;20039;-80
2023/06/16 02:08:04;;;;;;;13.70;8.07;;;;;;;13.90;100.00;92496.91;4762549;30;20096;-80
2023/06/16 02:10:31;;;;;;;11.57;7.20;;;;;;;13.88;100.00;92491.94;4763416;30;20095;-81
2023/06/16 02:12:57;;;;;;;14.45;8.18;;;;;;;13.86;100.00;92490.69;4782676;30;20050;-81
2023/06/16 02:15:24;;;;;;;12.13;7.80;;;;;;;13.87;100.00;92500.91;4782731;30;20042;-80
2023/06/16 02:17:51;;;;;;;15.40;8.18;;;;;;;13.85;100.00;92497.81;4766657;30;20064;-80
2023/06/16 02:20:18;;;;;;;13.15;8.02;;;;;;;13.86;100.00;92494.09;4776786;30;20044;-80
2023/06/16 02:22:44;;;;;;;12.13;7.57;;;;;;;14.02;98.82;92491.81;4758153;30;20036;-80
2023/06/16 02:25:09;;;;;;;12.93;7.50;;;;;;;14.04;98.84;92499.41;4752793;30;20047;-80
2023/06/16 02:27:35;;;;;;;12.48;7.22;;;;;;;14.10;92.90;92498.94;4768663;30;20047;-81
2023/06/16 02:30:01;;;;;;;11.38;7.03;;;;;;;14.15;91.44;92501.44;4779455;30;20032;-80
2023/06/16 02:32:27;;;;;;;17.15;7.47;;;;;;;14.17;94.87;92498.50;4782645;30;20040;-79
2023/06/16 02:34:56;;;;;;;11.50;7.18;;;;;;;14.20;94.14;92503.13;4757035;30;20059;-81
2023/06/16 02:37:25;;;;;;;12.48;7.55;;;;;;;14.16;96.73;92502.19;4777514;30;20035;-80
2023/06/16 02:39:50;;;;;;;13.20;7.30;;;;;;;14.13;98.91;92494.94;4733046;30;20036;-81
2023/06/16 02:42:16;;;;;;;14.75;7.15;;;;;;;14.08;99.80;92497.72;4742176;30;20047;-80
2023/06/16 02:44:41;;;;;;;13.48;7.38;;;;;;;14.02;99.05;92497.06;4768233;30;20558;-80
2023/06/16 02:47:07;;;;;;;11.48;7.22;;;;;;;13.97;98.83;92501.72;4768526;30;20098;-80
2023/06/16 02:49:33;;;;;;;14.45;7.15;;;;;;;13.92;97.50;92502.63;4758096;30;20765;-81
2023/06/16 02:51:59;;;;;;;13.43;7.28;;;;;;;13.85;96.64;92508.34;4761733;30;20112;-81
2023/06/16 02:54:25;;;;;;;12.20;6.63;;;;;;;13.82;97.68;92508.94;4767857;30;20135;-81
2023/06/16 02:56:51;;;;;;;13.93;7.03;;;;;;;13.79;98.55;92501.66;4784839;30;20068;-80
2023/06/16 02:59:21;;;;;;;12.32;7.10;;;;;;;13.75;99.29;92505.97;4757408;30;20113;-81
2023/06/16 03:01:46;;;;;;;13.35;7.32;;;;;;;13.74;100.00;92507.06;4765007;30;20139;-80
2023/06/16 03:04:19;;;;;;;14.30;8.25;;;;;;;13.70;100.00;92500.84;4762097;30;20743;-80
2023/06/16 03:06:57;;;;;;;13.27;7.25;;;;;;;13.66;100.00;92500.69;4754925;30;20035;-81
2023/06/16 03:09:30;;;;;;;13.25;7.32;;;;;;;13.61;100.00;92505.31;4767870;30;20044;-81
2023/06/16 03:11:58;;;;;;;13.18;7.22;;;;;;;13.59;100.00;92504.84;4753038;30;20048;-80
2023/06/16 03:14:26;;;;;;;17.00;7.45;;;;;;;13.57;100.00;92512.25;4763035;30;20054;-80
2023/06/16 03:16:52;;;;;;;15.02;7.68;;;;;;;13.56;100.00;92508.84;4763309;30;20044;-80
2023/06/16 03:19:19;;;;;;;15.85;7.75;;;;;;;13.58;100.00;92511.97;4753861;30;20422;-81
2023/06/16 03:21:45;;;;;;;13.73;7.40;;;;;;;13.58;100.00;92519.06;4761669;30;20039;-80
2023/06/16 03:24:13;;;;;;;14.38;7.53;;;;;;;13.57;100.00;92518.28;4750692;30;20043;-80
2023/06/16 03:26:39;;;;;;;16.48;7.40;;;;;;;13.58;100.00;92516.41;4761204;30;20055;-80
2023/06/16 03:29:17;;;;;;;11.93;7.68;;;;;;;13.56;100.00;92516.75;4769152;30;20482;-80
2023/06/16 03:31:44;;;;;;;11.30;7.00;;;;;;;13.59;100.00;92520.63;4755650;30;20032;-80
2023/06/16 03:34:12;;;;;;;11.82;6.88;;;;;;;13.60;99.98;92519.53;4751628;30;20036;-79
2023/06/16 03:36:41;;;;;;;10.13;6.22;;;;;;;13.60;98.20;92524.78;4768504;30;20056;-80
2023/06/16 03:39:08;;;;;;;11.23;6.50;;;;;;;13.61;98.33;92521.09;4767956;30;20524;-80
2023/06/16 03:41:35;;;;;;;10.10;6.22;;;;;;;13.60;98.09;92522.97;4769791;30;20044;-80
2023/06/16 03:44:03;;;;;;;11.77;6.43;;;;;;;13.60;96.44;92530.03;4761734;30;20028;-80
2023/06/16 03:46:31;;;;;;;13.82;6.40;;;;;;;13.57;96.75;92523.53;4756079;30;20085;-81
2023/06/16 03:48:58;;;;;;;11.27;6.50;;;;;;;13.56;95.86;92532.53;4755544;30;20077;-80
2023/06/16 03:51:24;;;;;;;11.68;6.05;;;;;;;13.52;95.45;92527.09;4763023;30;20445;-80
2023/06/16 03:53:51;;;;;;;13.05;6.68;;;;;;;13.49;95.46;92534.81;4764104;30;20064;-82
2023/06/16 03:56:18;;;;;;;10.70;6.35;;;;;;;13.48;96.17;92533.25;4757163;30;20366;-79
2023/06/16 03:58:44;;;;;;;11.25;6.35;;;;;;;13.48;96.05;92533.25;4773881;30;20216;-79
2023/06/16 04:01:11;;;;;;;12.00;6.03;;;;;;;13.50;95.66;92533.72;4762094;30;20035;-78
2023/06/16 04:03:36;;;;;;;11.00;6.00;;;;;;;13.50;95.40;92534.50;4758301;30;20175;-80
2023/06/16 04:06:03;;;;;;;10.90;6.57;;;;;;;13.52;95.15;92534.97;4752004;30;20035;-79
2023/06/16 04:08:29;;;;;;;12.18;6.80;;;;;;;13.56;95.50;92534.38;4745536;30;20046;-80
2023/06/16 04:10:57;;;;;;;13.88;6.90;;;;;;;13.60;99.44;92541.38;4765894;30;20516;-79
2023/06/16 04:13:25;;;;;;;11.55;7.45;;;;;;;13.64;100.00;92531.00;4750259;30;20402;-79
2023/06/16 04:15:51;;;;;;;12.75;7.00;;;;;;;13.65;100.00;92537.81;4758204;30;20043;-81
2023/06/16 04:18:17;;;;;;;10.45;6.82;;;;;;;13.67;100.00;92538.31;4757528;30;20430;-80
2023/06/16 04:20:42;;;;;;;14.27;6.88;;;;;;;13.66;100.00;92540.13;4775137;30;20122;-80
2023/06/16 04:23:09;;;;;;;14.80;6.95;;;;;;;13.67;100.00;92530.41;4759547;30;20043;-81
2023/06/16 04:25:37;;;;;;;14.05;7.60;;;;;;;13.69;100.00;92531.66;4755536;30;20124;-80
2023/06/16 04:28:05;;;;;;;11.90;7.03;;;;;;;13.69;100.00;92536.13;4730701;30;20036;-80
2023/06/16 04:30:33;;;;;;;11.38;6.88;;;;;;;13.68;100.00;92539.84;4765103;30;20054;-80
2023/06/16 04:33:01;;;;;;;10.55;6.40;;;;;;;13.68;100.00;92540.59;4765375;30;20112;-80
2023/06/16 04:35:34;;;;;;;11.65;6.25;;;;;;;13.69;100.00;92536.13;4759087;30;20068;-78
2023/06/16 04:38:02;;;;;;;11.18;6.60;;;;;;;13.73;100.00;92542.31;4755523;30;20067;-79
2023/06/16 04:40:29;;;;;;;10.68;6.63;;;;;;;13.71;100.00;92528.69;4751370;30;20051;-79
2023/06/16 04:42:55;;;;;;;13.43;6.78;;;;;;;13.75;100.00;92535.69;4756310;30;20048;-79
2023/06/16 04:45:21;;;;;;;13.43;6.57;;;;;;;13.79;100.00;92535.84;4757936;30;20058;-79
2023/06/16 04:47:47;;;;;;;11.75;6.53;;;;;;;13.86;100.00;92530.16;4759606;30;20418;-79
2023/06/16 04:50:15;;;;;;;11.07;6.35;;;;;;;13.90;100.00;92531.88;4782581;30;20126;-78
2023/06/16 04:52:41;;;;;;;11.15;6.20;;;;;;;13.94;100.00;92532.06;4736730;30;20040;-79
2023/06/16 04:55:07;;;;;;;13.95;7.20;;;;;;;13.98;100.00;92527.72;4755919;30;20035;-79
2023/06/16 04:57:34;;;;;;;13.45;6.40;;;;;;;14.03;100.00;92526.81;4757685;30;20039;-79
2023/06/16 05:00:03;;;;;;;11.65;6.45;;;;;;;14.08;100.00;92527.44;4770504;30;20043;-78
2023/06/16 05:02:30;;;;;;;10.68;6.90;;;;;;;14.15;100.00;92537.50;4757682;30;20043;-78
2023/06/16 05:04:56;;;;;;;12.50;6.60;;;;;;;14.25;100.00;92539.06;4759241;30;20048;-79
2023/06/16 05:07:21;;;;;;;10.38;6.40;;;;;;;14.33;100.00;92533.84;4772263;30;20402;-79
2023/06/16 05:09:47;;;;;;;10.73;6.57;;;;;;;14.43;100.00;92537.25;4773333;29;20032;-79
2023/06/16 05:12:13;;;;;;;15.45;7.05;;;;;;;14.52;100.00;92538.81;4756109;30;20123;-79
2023/06/16 05:14:39;;;;;;;12.13;6.22;;;;;;;14.63;100.00;92541.94;4758754;30;20101;-79
2023/06/16 05:17:08;;;;;;;11.38;6.47;;;;;;;14.71;100.00;92535.91;4756642;30;20081;-79
2023/06/16 05:19:34;;;;;;;11.05;6.53;;;;;;;14.79;100.00;92537.00;4769104;30;20081;-79
2023/06/16 05:22:01;;;;;;;13.88;6.93;;;;;;;14.87;100.00;92530.19;4745297;30;20043;-79
2023/06/16 05:24:29;;;;;;;13.68;6.82;;;;;;;14.94;100.00;92535.75;4762740;30;20130;-80
2023/06/16 05:26:56;;;;;;;13.55;6.40;;;;;;;15.01;100.00;92540.56;4743248;30;20108;-79
2023/06/16 05:29:22;;;;;;;9.13;6.22;;;;;;;15.08;100.00;92540.84;4752392;30;20063;-80
2023/06/16 05:31:48;;;;;;;9.63;6.45;;;;;;;15.15;100.00;92549.06;4755368;30;20587;-80
2023/06/16 05:34:14;;;;;;;16.73;7.63;;;;;;;15.30;100.00;92543.31;4759063;30;20035;-79
2023/06/16 05:36:40;;;;;;;14.82;7.65;;;;;;;15.39;100.00;92544.06;4779737;30;20126;-78
2023/06/16 05:39:11;;;;;;;10.43;6.93;;;;;;;15.45;100.00;92539.41;4772921;30;20047;-79
2023/06/16 05:41:36;;;;;;;9.57;6.43;;;;;;;15.51;100.00;92548.66;4762501;30;20031;-79
2023/06/16 05:44:02;;;;;;;9.80;6.55;;;;;;;15.72;100.00;92554.09;4760496;30;20043;-79
2023/06/16 05:46:28;;;;;;;12.15;7.10;;;;;;;16.32;99.18;92554.13;4759907;30;20511;-80
2023/06/16 05:48:57;;;;;;;11.65;6.38;;;;;;;17.03;97.02;92556.00;4747015;30;20035;-80
2023/06/16 05:51:24;;;;;;;14.40;6.90;;;;;;;17.76;97.09;92560.75;4768403;30;20043;-80
2023/06/16 05:53:51;;;;;;;10.57;6.30;;;;;;;18.41;92.48;92568.09;4764443;30;20516;-78
2023/06/16 05:56:17;;;;;;;10.90;6.05;;;;;;;18.92;86.14;92563.19;4758851;30;20495;-79
2023/06/16 05:58:43;;;;;;;10.07;5.97;;;;;;;19.40;81.28;92568.66;4751428;30;20068;-79
2023/06/16 06:01:11;;;;;;;13.18;5.80;;;;;;;19.82;78.92;92573.59;4763063;30;20039;-79
2023/06/16 06:03:37;;;;;;;9.45;6.15;;;;;;;20.22;77.60;92580.63;4762615;30;20036;-79
2023/06/16 06:06:04;;;;;;;10.68;6.80;;;;;;;20.58;82.28;92583.03;4760966;30;20057;-79
2023/06/16 06:08:30;;;;;;;11.82;6.72;;;;;;;20.64;76.42;92585.41;4746787;30;20153;-80
2023/06/16 06:11:01;;;;;;;15.68;7.07;;;;;;;20.66;78.11;92591.94;4759520;30;20142;-80
2023/06/16 06:13:28;;;;;;;13.45;7.40;;;;;;;20.87;78.97;92588.97;4759592;30;20407;-81
2023/06/16 06:15:53;;;;;;;10.02;6.55;;;;;;;21.17;74.13;92591.13;4745890;30;20050;-79
2023/06/16 06:18:19;;;;;;;12.85;6.70;;;;;;;21.09;70.13;92592.09;4749756;30;20681;-80
2023/06/16 06:20:46;;;;;;;16.42;6.85;;;;;;;20.87;69.81;92599.59;4736813;30;20055;-81
2023/06/16 06:23:12;;;;;;;12.57;6.68;;;;;;;20.92;71.05;92596.69;4744569;30;20036;-79
2023/06/16 06:25:40;;;;;;;12.38;7.20;;;;;;;21.20;73.77;92601.06;4744494;30;20422;-81
2023/06/16 06:28:08;;;;;;;13.95;7.05;;;;;;;21.11;71.03;92603.91;4746645;30;20376;-80
2023/06/16 06:30:34;;;;;;;10.68;6.63;;;;;;;21.10;70.25;92610.38;4740855;30;20066;-80
2023/06/16 06:33:00;;;;;;;13.13;6.28;;;;;;;21.16;70.11;92605.53;4759861;30;20043;-80
2023/06/16 06:35:26;;;;;;;11.68;6.85;;;;;;;20.99;71.77;92612.03;4744542;30;20055;-80
2023/06/16 06:37:52;;;;;;;10.55;6.93;;;;;;;20.55;72.31;92612.94;4740729;30;20727;-78
2023/06/16 06:40:18;;;;;;;11.10;6.32;;;;;;;20.41;73.60;92609.94;4738178;30;20035;-80
2023/06/16 06:42:44;;;;;;;14.30;7.15;;;;;;;20.13;72.64;92615.34;4749758;30;20062;-79
2023/06/16 06:45:26;;;;;;;19.67;6.85;;;;;;;20.24;76.12;92615.59;4743527;30;20042;-78
2023/06/16 06:47:52;;;;;;;10.70;7.10;;;;;;;19.84;80.83;92619.19;4738715;30;20711;-80
2023/06/16 06:50:18;;;;;;;21.00;8.60;;;;;;;19.65;84.98;92628.50;4740367;30;20101;-80
2023/06/16 06:52:44;;;;;;;19.20;7.70;;;;;;;19.62;88.75;92618.56;4748909;30;20140;-78
2023/06/16 06:55:10;;;;;;;23.13;8.82;;;;;;;19.58;86.51;92625.66;4735190;30;20039;-80
2023/06/16 06:57:35;;;;;;;17.08;6.95;;;;;;;19.86;84.73;92624.91;4750220;30;20070;-80
2023/06/16 07:00:01;;;;;;;14.68;7.05;;;;;;;20.09;78.39;92620.56;4760399;30;20440;-80
2023/06/16 07:02:26;;;;;;;14.13;6.65;;;;;;;20.54;75.66;92624.69;4753178;30;20562;-80
2023/06/16 07:04:52;;;;;;;12.77;7.40;;;;;;;20.28;81.66;92614.56;4761379;30;20040;-80
2023/06/16 07:07:18;;;;;;;13.35;6.82;;;;;;;20.05;82.03;92618.94;4764560;30;20074;-80
2023/06/16 07:09:43;;;;;;;16.35;7.97;;;;;;;19.79;86.39;92619.41;4768293;30;20287;-79
2023/06/16 07:12:09;;;;;;;11.77;6.50;;;;;;;19.67;71.81;92620.22;4746574;30;20044;-80
2023/06/16 07:14:35;;;;;;;12.07;6.72;;;;;;;19.84;77.86;92613.88;4761041;30;20603;-80
2023/06/16 07:17:02;;;;;;;14.32;8.70;;;;;;;19.56;88.63;92614.59;4763428;30;20454;-80
2023/06/16 07:19:28;;;;;;;10.55;6.47;;;;;;;19.47;82.91;92616.63;4762686;30;20060;-80
2023/06/16 07:21:54;;;;;;;9.75;5.90;;;;;;;19.76;67.29;92626.94;4746423;30;20055;-80
2023/06/16 07:24:21;;;;;;;9.52;5.68;;;;;;;19.79;63.24;92622.06;4770711;30;20056;-80
2023/06/16 07:26:47;;;;;;;10.27;6.50;;;;;;;20.09;71.42;92619.81;4760043;30;20517;-80
2023/06/16 07:29:12;;;;;;;13.45;6.03;;;;;;;20.26;67.42;92618.69;4766485;30;20038;-80
2023/06/16 07:31:38;;;;;;;10.70;6.15;;;;;;;20.65;65.02;92616.19;4762050;30;20060;-80
2023/06/16 07:34:04;;;;;;;9.18;6.15;;;;;;;20.74;66.07;92617.56;4744396;30;20120;-80
2023/06/16 07:36:31;;;;;;;12.10;6.72;;;;;;;20.78;68.60;92620.31;4759862;30;20379;-81
2023/06/16 07:38:56;;;;;;;10.98;6.20;;;;;;;21.01;71.08;92617.78;4764263;30;20035;-80
2023/06/16 07:41:22;;;;;;;13.73;6.68;;;;;;;21.50;71.10;92613.84;4740596;30;20048;-80
2023/06/16 07:43:48;;;;;;;12.30;6.65;;;;;;;21.55;72.40;92614.34;4750270;30;20128;-81
2023/06/16 07:46:17;;;;;;;10.93;7.15;;;;;;;21.19;75.90;92615.50;4765000;30;20047;-81
2023/06/16 07:48:43;;;;;;;12.63;6.68;;;;;;;21.23;77.37;92615.56;4770823;30;20423;-81
2023/06/16 07:51:08;;;;;;;12.00;7.30;;;;;;;21.00;78.01;92614.31;4763802;30;20566;-80
2023/06/16 07:53:34;;;;;;;13.98;7.00;;;;;;;20.67;81.72;92616.63;4772867;30;20040;-80
2023/06/16 07:56:01;;;;;;;14.85;7.50;;;;;;;20.25;80.76;92619.81;4759310;30;20052;-80
2023/06/16 07:58:26;;;;;;;14.07;7.35;;;;;;;20.03;81.50;92619.28;4747725;30;20439;-79
2023/06/16 08:00:52;;;;;;;10.68;7.40;;;;;;;19.80;80.85;92623.63;4764134;30;20110;-80
2023/06/16 08:03:18;;;;;;;15.05;7.20;;;;;;;19.86;76.43;92624.91;4776545;30;20403;-80
2023/06/16 08:05:44;;;;;;;9.63;6.65;;;;;;;20.11;80.96;92609.63;4751946;30;20572;-80
2023/06/16 08:08:10;;;;;;;13.57;7.15;;;;;;;20.35;77.81;92609.44;4759236;30;20127;-80
2023/06/16 08:10:35;;;;;;;10.48;6.70;;;;;;;20.62;76.30;92608.91;4770223;30;20126;-80
2023/06/16 08:13:01;;;;;;;18.48;6.32;;;;;;;20.86;75.16;92597.31;4759998;30;20073;-80
2023/06/16 08:15:26;;;;;;;12.07;6.25;;;;;;;20.73;76.90;92605.38;4764591;30;20274;-80
2023/06/16 08:17:52;;;;;;;12.90;6.82;;;;;;;20.38;77.96;92600.00;4730395;30;20079;-80
2023/06/16 08:20:18;;;;;;;10.55;6.43;;;;;;;20.22;78.40;92596.56;4761676;30;20048;-80
2023/06/16 08:22:44;;;;;;;12.70;7.15;;;;;;;20.51;78.17;92595.34;4757294;30;20047;-80
2023/06/16 08:25:09;;;;;;;11.07;6.82;;;;;;;20.51;76.29;92592.69;4754183;30;20051;-80
2023/06/16 08:27:35;;;;;;;11.43;6.55;;;;;;;20.44;78.50;92587.97;4767634;30;20522;-80
2023/06/16 08:30:03;;;;;;;11.45;6.75;;;;;;;20.55;72.45;92594.31;4753306;30;20078;-80
2023/06/16 08:32:29;;;;;;;21.35;8.45;;;;;;;20.53;75.73;92596.53;4769120;30;20040;-79
2023/06/16 08:34:55;;;;;;;16.42;7.38;;;;;;;20.52;74.88;92588.94;4763252;30;20043;-79
2023/06/16 08:37:22;;;;;;;12.45;7.05;;;;;;;20.42;71.75;92586.78;4760765;30;20040;-81
2023/06/16 08:39:47;;;;;;;18.45;7.22;;;;;;;20.51;77.01;92582.84;4748538;30;20050;-81
2023/06/16 08:42:15;;;;;;;12.15;7.07;;;;;;;20.83;76.61;92588.13;4761170;30;20122;-81
2023/06/16 08:44:43;;;;;;;10.73;6.38;;;;;;;21.22;72.90;92572.19;4772528;30;20098;-80
2023/06/16 08:47:09;;;;;;;13.43;7.18;;;;;;;21.32;71.50;92574.31;4742299;30;20051;-81
2023/06/16 08:49:35;;;;;;;21.13;8.40;;;;;;;21.14;74.66;92579.28;4725985;30;20063;-81
2023/06/16 08:52:08;;;;;;;12.35;7.10;;;;;;;21.12;72.24;92575.41;4756428;30;20069;-82
2023/06/16 08:54:47;;;;;;;14.00;7.13;;;;;;;20.87;69.71;92580.97;4746215;30;20040;-81
2023/06/16 08:57:14;;;;;;;15.02;7.10;;;;;;;20.79;72.94;92582.72;4765654;30;20039;-81
2023/06/16 08:59:45;;;;;;;11.98;6.32;;;;;;;20.85;68.70;92582.44;4754319;30;20051;-81
2023/06/16 09:02:11;;;;;;;10.95;6.88;;;;;;;20.89;71.58;92576.06;4762260;30;20044;-81
2023/06/16 09:04:37;;;;;;;14.02;6.20;;;;;;;21.20;69.59;92574.44;4728890;30;20048;-81
2023/06/16 09:07:03;;;;;;;8.60;6.25;;;;;;;21.21;66.73;92579.41;4747692;30;20515;-80
2023/06/16 09:09:29;;;;;;;9.88;6.57;;;;;;;20.94;68.18;92569.72;4761845;30;20035;-81
2023/06/16 09:12:05;;;;;;;11.60;6.57;;;;;;;21.21;66.74;92566.13;4758228;30;20059;-81
2023/06/16 09:14:34;;;;;;;13.60;6.40;;;;;;;21.47;67.02;92566.63;4758738;30;20040;-81
2023/06/16 09:17:04;;;;;;;8.77;5.75;;;;;;;21.61;68.59;92566.88;4753416;30;20032;-82
2023/06/16 09:19:30;;;;;;;9.80;5.88;;;;;;;21.55;70.05;92569.06;4737463;30;20087;-81
2023/06/16 09:21:56;;;;;;;9.82;6.70;;;;;;;21.42;69.83;92570.34;4759051;30;20048;-82
2023/06/16 09:24:26;;;;;;;9.05;5.63;;;;;;;21.62;69.25;92563.09;4757272;30;20181;-81
2023/06/16 09:26:56;;;;;;;10.95;6.03;;;;;;;21.44;71.49;92567.34;4763365;30;20148;-82
2023/06/16 09:29:26;;;;;;;8.90;6.22;;;;;;;21.61;74.63;92551.66;4779614;30;20043;-81
2023/06/16 09:31:52;;;;;;;9.75;5.72;;;;;;;21.82;62.46;92551.28;4780198;30;20690;-81
2023/06/16 09:34:18;;;;;;;15.77;6.18;;;;;;;22.08;67.11;92549.81;4756512;30;20105;-81
2023/06/16 09:36:43;;;;;;;11.93;6.68;;;;;;;22.01;73.31;92555.03;4762612;30;20410;-81
2023/06/16 09:39:25;;;;;;;10.80;6.30;;;;;;;21.98;73.73;92555.75;4760516;30;20054;-81
2023/06/16 09:41:53;;;;;;;13.95;6.82;;;;;;;21.86;72.40;92550.56;4762588;30;20132;-81
2023/06/16 09:44:21;;;;;;;9.30;5.15;;;;;;;21.57;67.20;92545.53;4752339;30;20074;-82
2023/06/16 09:46:49;;;;;;;10.05;5.88;;;;;;;21.78;71.65;92550.44;4766853;30;20036;-81
2023/06/16 09:49:23;;;;;;;9.38;6.05;;;;;;;21.61;73.24;92554.31;4773750;30;20486;-81
2023/06/16 09:51:51;;;;;;;15.80;6.82;;;;;;;21.47;74.99;92545.31;4761713;30;20073;-81
2023/06/16 09:54:18;;;;;;;9.43;6.47;;;;;;;21.68;71.40;92540.38;4772587;30;20232;-82
2023/06/16 09:56:45;;;;;;;14.27;7.03;;;;;;;21.89;73.68;92544.56;4746900;30;20148;-81
2023/06/16 09:59:11;;;;;;;10.73;5.70;;;;;;;22.07;64.56;92534.19;4761532;30;20036;-82
2023/06/16 10:01:40;;;;;;;12.15;6.05;;;;;;;22.39;66.19;92540.78;4734009;30;20052;-81
2023/06/16 10:04:08;;;;;;;8.05;5.68;;;;;;;22.52;62.32;92530.72;4774701;30;20032;-81
2023/06/16 10:06:56;;;;;;;9.43;5.68;;;;;;;22.64;62.30;92541.16;4771179;30;20036;-82
2023/06/16 10:09:27;;;;;;;9.85;5.68;;;;;;;22.70;69.33;92533.63;4744499;30;20076;-81
2023/06/16 10:11:58;;;;;;;10.20;5.65;;;;;;;22.99;70.71;92521.44;4744133;30;20137;-81
2023/06/16 10:14:29;;;;;;;9.57;6.10;;;;;;;23.08;63.80;92531.88;4744244;30;20071;-81
2023/06/16 10:16:56;;;;;;;9.88;5.75;;;;;;;23.19;68.98;92526.63;4749070;30;20052;-81
2023/06/16 10:19:23;;;;;;;10.82;6.13;;;;;;;23.38;63.92;92523.03;4758484;30;20482;-81
2023/06/16 10:21:50;;;;;;;7.80;5.20;;;;;;;23.41;63.49;92525.72;4776512;30;20046;-80
2023/06/16 10:24:16;;;;;;;13.43;5.65;;;;;;;23.05;58.89;92525.31;4741860;30;20622;-81
2023/06/16 10:26:43;;;;;;;7.35;5.30;;;;;;;23.14;53.19;92524.28;4746805;30;20495;-81
2023/06/16 10:29:12;;;;;;;8.48;5.05;;;;;;;23.20;47.29;92525.50;4774455;30;20044;-81
2023/06/16 10:31:39;;;;;;;9.23;5.10;;;;;;;23.24;47.87;92523.66;4767619;30;20055;-82
2023/06/16 10:34:04;;;;;;;7.65;5.45;;;;;;;23.44;50.60;92524.22;4735089;30;20047;-81
2023/06/16 10:36:30;;;;;;;9.30;5.30;;;;;;;23.69;49.90;92527.19;4762020;30;20052;-81
2023/06/16 10:38:59;;;;;;;7.60;4.95;;;;;;;23.69;50.11;92521.84;4762941;30;20040;-81
2023/06/16 10:41:31;;;;;;;9.48;4.93;;;;;;;23.27;48.10;92528.25;4756490;30;20058;-81
2023/06/16 10:44:27;;;;;;;10.45;4.78;;;;;;;23.36;43.09;92522.63;4766446;30;20032;-81
2023/06/16 10:47:08;;;;;;;7.32;4.60;;;;;;;23.73;43.77;92513.84;4741955;30;20079;-81
2023/06/16 10:50:00;;;;;;;9.93;5.22;;;;;;;23.85;44.91;92513.63;4765559;30;20036;-81
2023/06/16 10:52:28;;;;;;;8.85;5.30;;;;;;;23.70;53.90;92510.75;4775957;30;20047;-81
2023/06/16 10:54:55;;;;;;;9.63;5.68;;;;;;;23.14;56.89;92508.28;4773002;30;20048;-81
2023/06/16 10:57:22;;;;;;;10.15;5.70;;;;;;;22.91;57.12;92511.78;4759234;30;20044;-80
2023/06/16 11:00:07;;;;;;;16.30;5.75;;;;;;;22.74;60.10;92515.78;4761300;30;20044;-81
2023/06/16 11:02:35;;;;;;;11.60;5.28;;;;;;;22.84;57.19;92517.03;4759912;30;20489;-80
2023/06/16 11:05:09;;;;;;;10.05;5.90;;;;;;;22.73;58.09;92516.13;4762182;30;20067;-80
2023/06/16 11:08:08;;;;;;;13.70;6.00;;;;;;;23.00;57.25;92516.88;4743301;30;20047;-81
2023/06/16 11:10:51;;;;;;;9.02;5.75;;;;;;;23.17;57.20;92519.00;4742958;30;20077;-80
2023/06/16 11:13:40;;;;;;;8.82;5.30;;;;;;;22.94;52.26;92513.72;4758663;30;20047;-80
2023/06/16 11:16:07;;;;;;;9.05;5.50;;;;;;;23.06;54.85;92518.09;4761249;30;20078;-81
2023/06/16 11:18:33;;;;;;;8.70;5.72;;;;;;;23.24;53.60;92515.66;4744032;30;20060;-80
2023/06/16 11:21:01;;;;;;;11.68;5.63;;;;;;;23.52;55.18;92517.09;4773184;30;20491;-80
2023/06/16 11:23:28;;;;;;;8.65;5.75;;;;;;;23.72;53.91;92506.97;4774169;30;20063;-81
2023/06/16 11:26:12;;;;;;;8.20;5.00;;;;;;;23.52;51.62;92517.84;4762692;30;20040;-81